Time;durP1;ratioP1;P1;durP2;ratioP2;P2;SDS_P1;SDS_P2;PMS_P1;PMS_P2;Temp;Humidity;BMP_temperature;BMP_pressure;BME280_temperature;BME280_humidity;BME280_pressure;Samples;Min_cycle;Max_cycle;Signal;HPM_P1;HPM_P2
2021/12/31 00:02:19;;;;;;;14.60;3.03;;;;;;;11.00;100.00;101353.56;5066985;28;20037;-77
2021/12/31 00:04:44;;;;;;;10.70;2.95;;;;;;;10.99;100.00;101359.78;5064363;28;20047;-77
2021/12/31 00:07:10;;;;;;;6.43;1.95;;;;;;;10.83;100.00;101322.56;5035212;28;20115;-77
2021/12/31 00:09:36;;;;;;;11.10;2.50;;;;;;;10.93;100.00;101330.47;5049544;28;20115;-77
2021/12/31 00:12:04;;;;;;;9.02;2.33;;;;;;;11.03;100.00;101358.53;5051516;28;20037;-77
2021/12/31 00:14:29;;;;;;;7.85;2.13;;;;;;;11.09;100.00;101349.22;5066588;28;20060;-77
2021/12/31 00:16:55;;;;;;;7.15;1.77;;;;;;;10.97;100.00;101348.53;5065776;28;20031;-77
2021/12/31 00:19:21;;;;;;;15.65;2.80;;;;;;;11.00;100.00;101369.41;5052260;28;20450;-77
2021/12/31 00:21:48;;;;;;;11.85;2.72;;;;;;;10.94;100.00;101340.06;5032755;28;20042;-77
2021/12/31 00:24:14;;;;;;;9.55;3.33;;;;;;;11.00;100.00;101358.84;5052158;28;20398;-77
2021/12/31 00:26:39;;;;;;;13.63;2.85;;;;;;;11.01;100.00;101357.84;5053127;28;20078;-77
2021/12/31 00:29:05;;;;;;;8.27;2.22;;;;;;;10.97;100.00;101361.75;5047119;28;20025;-77
2021/12/31 00:31:30;;;;;;;11.32;3.33;;;;;;;10.91;100.00;101357.03;5067934;28;20032;-77
2021/12/31 00:33:55;;;;;;;13.70;2.92;;;;;;;10.91;100.00;101357.03;5034569;28;20041;-77
2021/12/31 00:36:21;;;;;;;17.40;2.35;;;;;;;10.83;100.00;101348.97;5050939;28;20120;-77
2021/12/31 00:38:46;;;;;;;11.88;2.50;;;;;;;10.95;100.00;101362.84;5032575;28;20032;-77
2021/12/31 00:41:12;;;;;;;13.68;2.92;;;;;;;10.91;100.00;101364.97;5049800;28;20050;-77
2021/12/31 00:43:38;;;;;;;17.95;2.83;;;;;;;10.88;100.00;101359.94;5031925;28;20074;-77
2021/12/31 00:46:03;;;;;;;14.40;2.30;;;;;;;10.74;100.00;101347.19;5048927;28;20024;-77
2021/12/31 00:48:29;;;;;;;12.10;2.08;;;;;;;10.75;100.00;101354.94;5048280;28;20487;-77
2021/12/31 00:50:56;;;;;;;9.70;2.28;;;;;;;10.72;100.00;101359.69;5056583;28;20501;-78
2021/12/31 00:53:23;;;;;;;12.63;2.25;;;;;;;10.79;100.00;101364.25;5065778;28;20105;-77
2021/12/31 00:55:48;;;;;;;11.30;2.10;;;;;;;10.52;100.00;101313.94;5067862;28;20036;-77
2021/12/31 00:58:14;;;;;;;14.00;2.78;;;;;;;10.62;100.00;101342.00;5068355;28;20059;-77
2021/12/31 01:00:39;;;;;;;17.88;2.80;;;;;;;10.60;100.00;101343.94;5051513;28;20028;-77
2021/12/31 01:03:04;;;;;;;11.73;2.25;;;;;;;10.56;100.00;101341.72;5017937;28;20035;-77
2021/12/31 01:05:30;;;;;;;5.38;2.00;;;;;;;10.63;100.00;101356.88;5068539;28;20071;-79
2021/12/31 01:07:56;;;;;;;9.98;2.15;;;;;;;10.74;100.00;101363.84;5048230;28;20457;-78
2021/12/31 01:10:25;;;;;;;14.80;2.92;;;;;;;10.67;100.00;101355.66;5067581;28;20044;-77
2021/12/31 01:12:51;;;;;;;15.90;2.20;;;;;;;10.62;100.00;101347.28;5051152;28;20114;-77
2021/12/31 01:15:41;;;;;;;11.18;2.33;;;;;;;10.67;100.00;101360.09;5050018;28;20510;-77
2021/12/31 01:20:28;;;;;;;10.65;2.13;;;;;;;10.74;100.00;101371.75;5069608;28;20069;-77
2021/12/31 01:22:53;;;;;;;17.15;2.42;;;;;;;10.65;100.00;101349.66;5065942;28;20393;-77
2021/12/31 01:25:19;;;;;;;10.27;2.25;;;;;;;10.72;100.00;101357.88;5064486;28;20064;-77
2021/12/31 01:27:44;;;;;;;12.27;3.33;;;;;;;10.74;100.00;101368.28;5064823;28;20032;-77
2021/12/31 01:30:13;;;;;;;14.15;2.28;;;;;;;10.74;100.00;101365.66;5065148;28;20460;-77
2021/12/31 01:32:42;;;;;;;14.98;2.67;;;;;;;10.76;100.00;101369.00;5048204;28;20033;-77
2021/12/31 01:35:08;;;;;;;15.57;2.83;;;;;;;10.75;100.00;101354.94;5027154;28;20056;-77
2021/12/31 01:37:34;;;;;;;11.40;2.45;;;;;;;10.76;100.00;101364.53;5067567;28;20043;-77
2021/12/31 01:40:00;;;;;;;15.32;2.30;;;;;;;10.68;100.00;101352.03;5050444;28;20040;-77
2021/12/31 01:42:32;;;;;;;11.07;2.22;;;;;;;10.72;100.00;101357.03;5066262;28;20028;-77
2021/12/31 01:45:04;;;;;;;16.38;2.63;;;;;;;10.82;100.00;101357.84;5034811;28;20039;-77
2021/12/31 01:50:29;;;;;;;24.77;3.83;;;;;;;10.83;100.00;101367.47;4997792;28;20494;-77
2021/12/31 01:52:55;;;;;;;11.35;2.60;;;;;;;10.64;100.00;101332.16;5002609;28;20522;-77
2021/12/31 01:55:22;;;;;;;15.13;2.58;;;;;;;10.60;100.00;101328.09;4999986;28;20029;-77
2021/12/31 01:57:48;;;;;;;14.13;2.65;;;;;;;10.83;100.00;101356.91;5001104;28;20474;-77
2021/12/31 02:00:15;;;;;;;12.93;2.10;;;;;;;10.82;100.00;101363.13;5003698;28;20038;-77
2021/12/31 02:02:46;;;;;;;10.27;2.53;;;;;;;10.65;100.00;101333.81;4985922;28;20029;-77
2021/12/31 02:05:12;;;;;;;7.40;1.70;;;;;;;10.84;100.00;101366.47;4994366;28;20034;-77
2021/12/31 02:07:38;;;;;;;6.90;1.90;;;;;;;10.82;100.00;101363.13;5002629;28;20443;-77
2021/12/31 02:10:05;;;;;;;12.88;2.50;;;;;;;10.86;100.00;101362.72;4985343;28;20065;-77
2021/12/31 02:12:30;;;;;;;8.55;2.08;;;;;;;10.87;100.00;101355.66;5001649;28;20050;-77
2021/12/31 02:14:56;;;;;;;15.02;2.20;;;;;;;10.79;100.00;101347.59;5000972;28;20069;-77
2021/12/31 02:17:22;;;;;;;9.75;2.00;;;;;;;10.91;100.00;101363.16;5001571;28;20018;-78
2021/12/31 02:20:14;;;;;;;7.85;1.80;;;;;;;10.93;100.00;101360.38;4972217;28;20046;-78
2021/12/31 02:22:49;;;;;;;12.68;2.22;;;;;;;10.95;100.00;101360.22;5004117;28;20637;-77
2021/12/31 02:25:15;;;;;;;9.75;1.90;;;;;;;10.86;100.00;101341.59;4992921;28;20079;-77
2021/12/31 02:27:41;;;;;;;16.02;2.28;;;;;;;10.96;100.00;101361.91;5045698;28;20029;-77
2021/12/31 02:30:09;;;;;;;12.77;2.95;;;;;;;10.99;100.00;101362.44;5059932;28;20033;-78
2021/12/31 02:32:34;;;;;;;12.88;2.80;;;;;;;11.01;100.00;101352.56;5064365;28;20107;-77
2021/12/31 02:35:00;;;;;;;5.53;1.45;;;;;;;10.92;100.00;101334.94;5064196;28;20044;-77
2021/12/31 02:37:26;;;;;;;7.93;2.25;;;;;;;11.08;100.00;101356.34;5044546;28;20044;-77
2021/12/31 02:39:51;;;;;;;12.18;2.42;;;;;;;11.11;100.00;101363.97;5064554;28;20037;-77
2021/12/31 02:42:17;;;;;;;9.90;2.90;;;;;;;11.12;100.00;101355.06;5060720;28;20037;-77
2021/12/31 02:44:43;;;;;;;16.13;2.80;;;;;;;11.15;100.00;101347.81;5043029;28;20515;-77
2021/12/31 02:47:08;;;;;;;8.25;2.05;;;;;;;11.00;100.00;101324.50;5066425;28;20063;-77
2021/12/31 02:49:41;;;;;;;8.20;2.10;;;;;;;11.17;100.00;101356.44;5052843;28;20072;-77
2021/12/31 02:52:10;;;;;;;9.13;2.70;;;;;;;11.13;100.00;101350.63;5064764;28;20033;-77
2021/12/31 02:54:38;;;;;;;12.05;3.58;;;;;;;11.11;100.00;101350.75;5050923;28;20051;-77
2021/12/31 02:57:05;;;;;;;9.35;2.22;;;;;;;11.20;100.00;101359.66;5037339;28;20036;-77
2021/12/31 02:59:31;;;;;;;13.27;2.95;;;;;;;11.19;100.00;101351.84;5068383;28;20032;-77
2021/12/31 03:01:58;;;;;;;8.13;2.20;;;;;;;11.21;100.00;101349.91;5054566;28;20538;-77
2021/12/31 03:04:24;;;;;;;10.90;2.35;;;;;;;11.19;100.00;101352.72;5075610;28;20081;-77
2021/12/31 03:06:52;;;;;;;7.75;2.20;;;;;;;11.21;100.00;101347.25;5069888;28;20096;-77
2021/12/31 03:09:23;;;;;;;8.88;2.63;;;;;;;11.20;100.00;101337.69;5069583;28;20024;-77
2021/12/31 03:11:52;;;;;;;14.02;2.70;;;;;;;11.19;100.00;101334.22;5054539;28;20646;-77
2021/12/31 03:14:19;;;;;;;8.55;2.13;;;;;;;11.08;100.00;101316.72;5069936;28;20582;-77
2021/12/31 03:16:46;;;;;;;9.27;2.47;;;;;;;11.15;100.00;101340.75;5052427;28;20037;-77
2021/12/31 03:19:12;;;;;;;9.38;2.88;;;;;;;11.17;100.00;101335.31;5070156;28;20024;-77
2021/12/31 03:21:38;;;;;;;8.50;2.70;;;;;;;11.02;100.00;101319.91;5051334;28;20514;-77
2021/12/31 03:24:03;;;;;;;15.35;2.85;;;;;;;11.09;100.00;101330.75;5054854;28;20043;-78
2021/12/31 03:26:29;;;;;;;10.20;2.22;;;;;;;11.19;100.00;101349.22;5037106;28;20046;-77
2021/12/31 03:28:54;;;;;;;8.63;2.42;;;;;;;11.20;100.00;101342.97;5070693;28;20583;-77
2021/12/31 03:31:20;;;;;;;12.93;1.95;;;;;;;11.18;100.00;101337.00;5069059;28;20039;-77
2021/12/31 03:33:45;;;;;;;6.38;2.03;;;;;;;11.19;100.00;101334.22;5037208;28;20047;-78
2021/12/31 03:36:11;;;;;;;6.10;1.95;;;;;;;11.22;100.00;101333.09;5036995;28;20032;-77
2021/12/31 03:38:36;;;;;;;8.55;1.65;;;;;;;11.05;100.00;101300.31;5052077;28;20119;-77
2021/12/31 03:41:01;;;;;;;9.25;2.55;;;;;;;11.12;100.00;101315.44;5052099;28;20086;-78
2021/12/31 03:43:27;;;;;;;7.50;2.42;;;;;;;11.10;100.00;101300.69;5066835;28;20039;-77
2021/12/31 03:45:53;;;;;;;8.48;2.03;;;;;;;11.17;100.00;101295.69;5038550;28;20028;-77
2021/12/31 03:48:19;;;;;;;8.63;2.40;;;;;;;11.10;100.00;101288.34;5053480;28;20032;-77
2021/12/31 03:50:46;;;;;;;7.15;2.00;;;;;;;11.21;100.00;101299.69;5071076;28;20072;-77
2021/12/31 03:53:12;;;;;;;8.80;1.92;;;;;;;11.23;100.00;101295.09;5071164;28;20036;-77
2021/12/31 03:55:37;;;;;;;8.05;2.17;;;;;;;11.13;100.00;101287.22;5034714;28;20120;-77
2021/12/31 03:58:02;;;;;;;8.73;2.13;;;;;;;11.26;100.00;101302.78;5068116;28;20071;-77
2021/12/31 04:00:29;;;;;;;6.53;1.85;;;;;;;11.29;100.00;101308.56;5055337;28;20090;-77
2021/12/31 04:03:04;;;;;;;7.22;2.13;;;;;;;11.14;100.00;101266.91;5052615;28;20109;-77
2021/12/31 04:05:29;;;;;;;6.05;2.58;;;;;;;11.18;100.00;101278.88;5062346;28;20029;-77
2021/12/31 04:07:54;;;;;;;8.98;2.35;;;;;;;11.30;100.00;101293.56;5050937;28;20468;-77
2021/12/31 04:10:23;;;;;;;10.20;1.77;;;;;;;11.33;100.00;101293.28;5068720;28;20052;-78
2021/12/31 04:12:48;;;;;;;8.77;3.03;;;;;;;11.24;100.00;101283.59;5069500;28;20048;-77
2021/12/31 04:15:14;;;;;;;7.38;2.42;;;;;;;11.17;100.00;101261.34;5035572;28;20024;-77
2021/12/31 04:17:40;;;;;;;11.20;2.13;;;;;;;11.30;100.00;101281.19;5050936;28;20041;-77
2021/12/31 04:20:09;;;;;;;9.07;2.30;;;;;;;11.32;100.00;101273.09;5065280;28;20037;-78
2021/12/31 04:22:37;;;;;;;8.40;2.15;;;;;;;11.28;100.00;101269.94;5065182;28;20051;-77
2021/12/31 04:25:02;;;;;;;7.68;2.35;;;;;;;11.23;100.00;101263.41;5035798;28;20488;-77
2021/12/31 04:27:28;;;;;;;5.13;1.40;;;;;;;11.31;100.00;101282.03;5033310;28;20039;-77
2021/12/31 04:29:53;;;;;;;5.55;1.48;;;;;;;11.28;100.00;101277.03;5050320;28;20126;-77
2021/12/31 04:32:20;;;;;;;9.68;2.10;;;;;;;11.26;100.00;101279.00;5069617;28;20043;-77
2021/12/31 04:34:46;;;;;;;15.48;2.00;;;;;;;11.40;100.00;101291.72;5051728;28;20396;-77
2021/12/31 04:37:11;;;;;;;7.78;1.75;;;;;;;11.44;100.00;101284.34;5051497;28;20040;-77
2021/12/31 04:39:37;;;;;;;4.95;2.15;;;;;;;11.36;100.00;101271.00;5035328;28;20037;-77
2021/12/31 04:42:03;;;;;;;5.57;1.65;;;;;;;11.46;100.00;101277.94;5035105;28;20032;-77
2021/12/31 04:44:29;;;;;;;6.35;1.85;;;;;;;11.28;100.00;101255.91;5049253;28;20051;-77
2021/12/31 04:46:54;;;;;;;3.92;1.45;;;;;;;11.44;100.00;101282.53;5061142;28;20142;-77
2021/12/31 04:49:19;;;;;;;7.30;1.67;;;;;;;11.44;100.00;101277.25;5073176;28;20045;-77
2021/12/31 04:51:45;;;;;;;7.97;2.25;;;;;;;11.35;100.00;101277.28;5051256;28;20047;-77
2021/12/31 04:54:15;;;;;;;5.35;2.35;;;;;;;11.33;100.00;101264.22;5016858;28;20045;-77
2021/12/31 04:56:42;;;;;;;4.75;1.80;;;;;;;11.37;100.00;101256.84;5052839;28;20025;-77
2021/12/31 04:59:09;;;;;;;4.85;1.90;;;;;;;11.31;100.00;101237.94;5069197;28;20038;-77
2021/12/31 05:01:35;;;;;;;9.30;1.85;;;;;;;11.22;100.00;101219.47;5060940;28;20115;-77
2021/12/31 05:04:00;;;;;;;6.68;1.75;;;;;;;11.52;100.00;101250.91;5069110;28;20127;-77
2021/12/31 05:06:25;;;;;;;10.10;1.48;;;;;;;11.56;100.00;101255.91;5051141;28;20052;-77
2021/12/31 05:08:51;;;;;;;5.40;1.88;;;;;;;11.43;100.00;101230.66;5046249;28;20032;-78
2021/12/31 05:11:16;;;;;;;5.40;1.60;;;;;;;11.60;100.00;101246.72;5044731;28;20062;-77
2021/12/31 05:13:42;;;;;;;3.00;1.58;;;;;;;11.48;100.00;101222.28;5049767;28;20071;-77
2021/12/31 05:16:07;;;;;;;8.13;2.08;;;;;;;11.47;100.00;101239.94;5036390;28;20051;-77
2021/12/31 05:18:32;;;;;;;8.15;1.92;;;;;;;11.60;100.00;101252.00;5033731;28;20036;-77
2021/12/31 05:20:58;;;;;;;4.05;1.60;;;;;;;11.58;100.00;101259.25;5050005;28;20369;-77
2021/12/31 05:23:23;;;;;;;6.15;2.03;;;;;;;11.56;100.00;101237.41;5039151;28;20126;-77
2021/12/31 05:25:49;;;;;;;9.30;1.60;;;;;;;11.64;100.00;101248.09;5048110;28;20035;-77
2021/12/31 05:28:15;;;;;;;6.78;1.73;;;;;;;11.62;100.00;101250.88;5066683;28;20032;-77
2021/12/31 05:30:40;;;;;;;5.55;1.80;;;;;;;11.63;100.00;101246.44;5064643;28;20036;-77
2021/12/31 05:33:06;;;;;;;7.18;1.83;;;;;;;11.56;100.00;101226.81;5047852;28;20036;-77
2021/12/31 05:35:31;;;;;;;3.50;1.50;;;;;;;11.61;100.00;101240.44;5068124;28;20024;-77
2021/12/31 05:37:57;;;;;;;5.43;1.60;;;;;;;11.62;100.00;101235.00;5047261;28;20135;-77
2021/12/31 05:40:23;;;;;;;5.43;2.25;;;;;;;11.62;100.00;101234.16;5066032;28;20079;-77
2021/12/31 05:42:49;;;;;;;2.60;1.40;;;;;;;11.60;100.00;101230.84;5065121;28;20490;-77
2021/12/31 05:45:14;;;;;;;5.03;1.77;;;;;;;11.58;100.00;101233.63;5062459;28;20060;-77
2021/12/31 05:47:40;;;;;;;7.47;1.98;;;;;;;11.49;100.00;101221.28;5031908;28;20043;-77
2021/12/31 05:50:10;;;;;;;4.18;1.98;;;;;;;11.57;100.00;101225.88;5046173;28;20128;-77
2021/12/31 05:52:35;;;;;;;7.80;1.60;;;;;;;11.57;100.00;101215.28;5045754;28;20143;-77
2021/12/31 05:55:00;;;;;;;7.57;1.88;;;;;;;11.59;100.00;101229.19;5047090;28;20536;-77
2021/12/31 05:57:26;;;;;;;5.85;2.05;;;;;;;11.54;100.00;101232.28;5047469;28;20029;-77
2021/12/31 05:59:51;;;;;;;6.15;1.77;;;;;;;11.46;100.00;101225.06;5031469;28;20082;-77
2021/12/31 06:02:17;;;;;;;2.72;1.38;;;;;;;11.50;100.00;101242.31;5066674;28;20495;-77
2021/12/31 06:04:42;;;;;;;2.35;1.13;;;;;;;11.48;100.00;101238.97;5045976;28;20037;-76
2021/12/31 06:07:08;;;;;;;5.45;1.52;;;;;;;11.48;100.00;101238.16;5066439;28;20029;-77
2021/12/31 06:09:34;;;;;;;4.00;1.60;;;;;;;11.40;100.00;101224.81;5049045;28;20032;-77
2021/12/31 06:12:00;;;;;;;5.18;1.80;;;;;;;11.52;100.00;101239.53;5012507;28;20033;-77
2021/12/31 06:14:26;;;;;;;8.65;1.67;;;;;;;11.39;100.00;101233.72;5068453;28;20024;-77
2021/12/31 06:16:51;;;;;;;5.15;1.75;;;;;;;11.47;100.00;101247.88;5050108;28;20099;-77
2021/12/31 06:19:17;;;;;;;5.57;1.27;;;;;;;11.35;100.00;101214.69;5064403;28;20021;-77
2021/12/31 06:21:44;;;;;;;6.47;1.65;;;;;;;11.45;100.00;101254.28;5049188;28;20170;-77
2021/12/31 06:24:10;;;;;;;4.28;1.70;;;;;;;11.43;100.00;101235.94;5048158;28;20834;-77
2021/12/31 06:26:36;;;;;;;5.45;1.70;;;;;;;11.46;100.00;101254.16;5032463;28;20032;-77
2021/12/31 06:29:03;;;;;;;5.28;1.52;;;;;;;11.45;100.00;101255.13;5064313;28;20078;-77
2021/12/31 06:31:29;;;;;;;4.00;1.45;;;;;;;11.46;100.00;101245.38;5053200;28;20020;-77
2021/12/31 06:33:54;;;;;;;3.45;1.58;;;;;;;11.42;100.00;101234.25;5051261;28;20550;-77
2021/12/31 06:36:20;;;;;;;3.45;1.30;;;;;;;11.48;100.00;101238.16;5069143;28;20032;-77
2021/12/31 06:38:47;;;;;;;3.72;1.42;;;;;;;11.30;100.00;101199.28;5054661;28;20545;-77
2021/12/31 06:41:14;;;;;;;2.30;1.52;;;;;;;11.37;100.00;101204.81;5047857;28;20056;-77
2021/12/31 06:43:40;;;;;;;5.65;1.70;;;;;;;11.49;100.00;101235.34;5068461;28;20033;-77
2021/12/31 06:46:05;;;;;;;6.95;1.60;;;;;;;11.46;100.00;101225.06;5072824;28;20020;-77
2021/12/31 06:48:30;;;;;;;6.07;1.98;;;;;;;11.48;100.00;101228.41;5070747;28;20585;-77
2021/12/31 06:50:56;;;;;;;5.75;1.33;;;;;;;11.47;100.00;101226.72;5053302;28;20058;-77
2021/12/31 06:53:21;;;;;;;5.20;1.60;;;;;;;11.46;100.00;101240.94;5071716;28;20112;-77
2021/12/31 06:55:46;;;;;;;5.45;1.85;;;;;;;11.39;100.00;101229.28;5071100;28;20472;-77
2021/12/31 06:58:12;;;;;;;4.35;1.92;;;;;;;11.44;100.00;101234.94;5037713;28;20047;-77
2021/12/31 07:00:37;;;;;;;4.15;1.80;;;;;;;11.35;100.00;101214.69;5051432;28;20041;-76
2021/12/31 07:03:07;;;;;;;6.47;2.60;;;;;;;11.45;100.00;101244.56;5070170;28;20029;-77
2021/12/31 07:05:33;;;;;;;3.88;1.40;;;;;;;11.42;100.00;101234.25;5070428;28;20086;-77
2021/12/31 07:07:58;;;;;;;6.72;1.70;;;;;;;11.47;100.00;101242.56;5067492;28;20029;-77
2021/12/31 07:10:24;;;;;;;4.35;1.50;;;;;;;11.47;100.00;101242.56;5069911;28;20083;-77
2021/12/31 07:12:55;;;;;;;4.75;2.30;;;;;;;11.45;100.00;101241.91;5048748;28;20487;-77
2021/12/31 07:15:21;;;;;;;4.20;2.17;;;;;;;11.43;100.00;101235.94;5051850;28;20659;-77
2021/12/31 07:17:47;;;;;;;2.45;1.80;;;;;;;11.29;100.00;101207.34;5069257;28;20067;-77
2021/12/31 07:20:12;;;;;;;5.60;1.98;;;;;;;11.42;100.00;101223.69;5016973;28;20087;-77
2021/12/31 07:22:38;;;;;;;4.47;1.63;;;;;;;11.45;100.00;101225.22;5065960;28;20028;-77
2021/12/31 07:25:04;;;;;;;5.05;1.48;;;;;;;11.33;100.00;101206.91;5068503;28;20560;-77
2021/12/31 07:27:32;;;;;;;3.10;1.67;;;;;;;11.40;100.00;101225.66;5033277;28;20128;-77
2021/12/31 07:29:57;;;;;;;5.25;1.65;;;;;;;11.35;100.00;101232.38;5033182;28;20033;-77
2021/12/31 07:32:22;;;;;;;4.95;2.13;;;;;;;11.36;100.00;101234.84;5068968;28;20419;-77
2021/12/31 07:34:48;;;;;;;3.28;1.88;;;;;;;11.25;100.00;101222.66;5047639;28;20039;-77
2021/12/31 07:37:13;;;;;;;3.70;1.30;;;;;;;11.20;100.00;101221.44;5049939;28;20063;-77
2021/12/31 07:39:46;;;;;;;5.57;1.60;;;;;;;11.27;100.00;101238.38;5051336;28;20381;-77
2021/12/31 07:42:11;;;;;;;4.35;1.63;;;;;;;11.24;100.00;101228.09;5067990;28;20031;-77
2021/12/31 07:44:37;;;;;;;4.00;1.83;;;;;;;11.07;100.00;101213.81;5063971;28;20372;-77
2021/12/31 07:47:02;;;;;;;3.05;1.60;;;;;;;11.07;100.00;101235.78;5051848;28;20028;-77
2021/12/31 07:49:28;;;;;;;4.07;1.45;;;;;;;11.15;100.00;101252.72;5069166;28;20171;-78
2021/12/31 07:51:53;;;;;;;7.18;1.88;;;;;;;11.00;100.00;101242.63;5069800;28;20056;-76
2021/12/31 07:54:18;;;;;;;5.70;1.90;;;;;;;10.97;100.00;101234.97;5060439;28;20120;-76
2021/12/31 07:56:44;;;;;;;4.13;2.00;;;;;;;11.10;100.00;101254.00;5031661;28;20043;-77
2021/12/31 07:59:09;;;;;;;5.78;1.73;;;;;;;11.17;100.00;101275.41;5046911;28;20135;-77
2021/12/31 08:01:34;;;;;;;8.45;1.70;;;;;;;11.04;100.00;101257.22;5048942;28;20476;-77
2021/12/31 08:04:00;;;;;;;2.08;1.23;;;;;;;11.21;100.00;101283.84;5031259;28;20048;-76
2021/12/31 08:06:25;;;;;;;8.82;2.00;;;;;;;11.19;100.00;101286.66;5059572;28;20068;-77
2021/12/31 08:08:50;;;;;;;1.75;1.42;;;;;;;11.17;100.00;101293.03;5059568;28;20453;-76
2021/12/31 08:11:16;;;;;;;5.28;1.63;;;;;;;11.01;100.00;101262.75;5066477;28;20051;-76
2021/12/31 08:13:41;;;;;;;5.18;1.67;;;;;;;11.05;100.00;101266.78;5049809;28;20104;-77
2021/12/31 08:16:07;;;;;;;2.63;1.48;;;;;;;11.15;100.00;101294.97;5025409;28;20476;-76
2021/12/31 08:18:32;;;;;;;5.05;1.85;;;;;;;11.16;100.00;101296.66;5033518;28;20127;-77
2021/12/31 08:20:57;;;;;;;5.45;2.22;;;;;;;11.32;100.00;101300.38;5018338;28;20060;-77
2021/12/31 08:23:23;;;;;;;2.33;1.73;;;;;;;11.41;100.00;101311.91;5045132;28;20029;-76
2021/12/31 08:25:48;;;;;;;3.42;1.50;;;;;;;11.42;100.00;101315.38;5072999;28;20673;-77
2021/12/31 08:28:14;;;;;;;2.60;1.17;;;;;;;11.34;100.00;101289.66;5067262;28;20025;-77
2021/12/31 08:30:39;;;;;;;5.75;1.95;;;;;;;11.48;100.00;101320.91;5015926;28;20443;-77
2021/12/31 08:33:05;;;;;;;2.65;1.58;;;;;;;11.50;100.00;101305.75;5066708;28;20478;-77
2021/12/31 08:35:31;;;;;;;3.15;1.55;;;;;;;11.61;100.00;101312.66;5065194;28;20028;-77
2021/12/31 08:37:56;;;;;;;2.65;1.40;;;;;;;11.56;100.00;101312.25;5064733;28;20349;-77
2021/12/31 08:40:22;;;;;;;4.97;1.40;;;;;;;11.56;100.00;101304.31;5068419;28;20032;-77
2021/12/31 08:42:48;;;;;;;5.70;1.40;;;;;;;11.52;100.00;101298.50;5036998;28;20060;-76
2021/12/31 08:45:13;;;;;;;5.95;1.52;;;;;;;11.40;100.00;101275.03;5028150;28;20427;-77
2021/12/31 08:47:39;;;;;;;3.92;1.58;;;;;;;11.46;100.00;101275.28;5045927;28;20130;-77
2021/12/31 08:50:05;;;;;;;5.10;1.60;;;;;;;11.59;100.00;101319.06;5046359;28;20623;-77
2021/12/31 08:52:30;;;;;;;4.40;1.65;;;;;;;11.62;100.00;101292.34;5063226;28;20028;-76
2021/12/31 08:54:56;;;;;;;4.47;1.75;;;;;;;11.66;100.00;101299.00;5043194;28;20029;-77
2021/12/31 08:57:21;;;;;;;4.93;1.67;;;;;;;11.58;100.00;101286.50;5066817;28;20028;-77
2021/12/31 08:59:47;;;;;;;3.15;1.23;;;;;;;11.59;100.00;101284.72;5043871;28;20103;-77
2021/12/31 09:02:13;;;;;;;6.13;1.80;;;;;;;11.57;100.00;101278.72;5033973;28;20060;-76
2021/12/31 09:04:38;;;;;;;3.75;1.38;;;;;;;11.72;100.00;101296.59;5064477;28;20025;-76
2021/12/31 09:07:04;;;;;;;3.40;1.52;;;;;;;11.74;100.00;101301.75;5028913;28;20020;-77
2021/12/31 09:09:30;;;;;;;4.68;1.80;;;;;;;11.61;100.00;101296.78;5062447;28;20476;-76
2021/12/31 09:11:56;;;;;;;3.33;1.67;;;;;;;11.66;100.00;101309.56;5045165;28;20028;-76
2021/12/31 09:14:22;;;;;;;5.22;1.90;;;;;;;11.65;100.00;101311.41;5048529;28;20028;-76
2021/12/31 09:16:47;;;;;;;3.67;1.63;;;;;;;11.48;100.00;101285.72;5062354;28;20036;-76
2021/12/31 09:19:13;;;;;;;3.80;1.65;;;;;;;11.39;100.00;101286.56;5049817;28;20103;-76
2021/12/31 09:21:40;;;;;;;5.20;1.92;;;;;;;11.53;100.00;101316.00;5069252;28;20115;-76
2021/12/31 09:24:05;;;;;;;5.68;1.73;;;;;;;11.52;100.00;101314.38;5061845;28;20025;-76
2021/12/31 09:26:31;;;;;;;3.55;1.50;;;;;;;11.40;100.00;101319.97;5028278;28;20105;-76
2021/12/31 09:28:56;;;;;;;4.10;2.20;;;;;;;11.36;100.00;101323.88;5046524;28;20101;-76
2021/12/31 09:31:22;;;;;;;7.82;1.90;;;;;;;11.31;100.00;101311.09;5027737;28;20040;-76
2021/12/31 09:33:47;;;;;;;5.70;1.80;;;;;;;11.42;100.00;101332.06;5044765;28;20036;-76
2021/12/31 09:36:13;;;;;;;6.03;1.65;;;;;;;11.38;100.00;101332.50;5027302;28;20374;-77
2021/12/31 09:38:39;;;;;;;7.57;1.73;;;;;;;11.30;100.00;101315.56;5062276;28;20524;-77
2021/12/31 09:41:04;;;;;;;4.13;1.52;;;;;;;11.45;100.00;101342.34;5047417;28;20111;-76
2021/12/31 09:43:30;;;;;;;5.82;1.83;;;;;;;11.40;100.00;101336.66;5070947;28;20082;-76
2021/12/31 09:45:55;;;;;;;3.80;1.63;;;;;;;11.40;100.00;101347.22;5057936;28;20500;-76
2021/12/31 09:48:22;;;;;;;6.93;1.63;;;;;;;11.30;100.00;101347.25;5041534;28;20032;-76
2021/12/31 09:50:57;;;;;;;4.22;1.65;;;;;;;11.40;100.00;101349.84;5063942;28;20048;-76
2021/12/31 09:53:26;;;;;;;5.68;1.52;;;;;;;11.40;100.00;101352.50;5060765;28;20033;-76
2021/12/31 09:55:54;;;;;;;3.95;1.70;;;;;;;11.35;100.00;101346.81;5037245;28;20157;-76
2021/12/31 09:58:24;;;;;;;5.80;1.73;;;;;;;11.34;100.00;101342.50;5045042;28;20064;-76
2021/12/31 10:00:53;;;;;;;4.53;1.77;;;;;;;11.33;100.00;101343.50;5047590;28;20028;-77
2021/12/31 10:03:25;;;;;;;5.18;1.98;;;;;;;11.19;100.00;101334.22;5063523;28;20028;-77
2021/12/31 10:05:56;;;;;;;5.97;1.77;;;;;;;11.18;100.00;101352.84;5034052;28;20025;-77
2021/12/31 10:08:30;;;;;;;5.30;2.00;;;;;;;11.09;100.00;101360.63;5045854;28;20550;-77
2021/12/31 10:11:07;;;;;;;4.70;1.95;;;;;;;11.10;100.00;101366.75;5061985;28;20029;-76
2021/12/31 10:13:35;;;;;;;5.05;2.13;;;;;;;11.06;100.00;101360.91;5043999;28;20575;-76
2021/12/31 10:16:01;;;;;;;7.10;2.53;;;;;;;11.03;100.00;101355.91;5044545;28;20028;-76
2021/12/31 10:18:35;;;;;;;7.88;2.42;;;;;;;11.03;100.00;101361.19;5063467;28;20031;-76
2021/12/31 10:21:02;;;;;;;4.97;2.30;;;;;;;11.01;100.00;101349.09;5041620;28;20040;-76
2021/12/31 10:23:27;;;;;;;4.10;2.22;;;;;;;10.99;100.00;101348.41;5041372;28;20028;-76
2021/12/31 10:26:17;;;;;;;7.80;2.70;;;;;;;10.88;100.00;101318.53;5047199;28;20024;-76
2021/12/31 10:28:55;;;;;;;8.25;3.15;;;;;;;10.96;100.00;101338.13;5047764;28;20082;-76
2021/12/31 10:31:20;;;;;;;7.85;2.67;;;;;;;10.89;100.00;101327.31;5061733;28;20024;-76
2021/12/31 10:33:47;;;;;;;6.10;2.30;;;;;;;10.96;100.00;101331.03;5026297;28;20097;-76
2021/12/31 10:36:50;;;;;;;5.35;2.30;;;;;;;10.94;100.00;101343.53;5064569;28;20127;-76
2021/12/31 10:39:23;;;;;;;4.25;2.10;;;;;;;10.88;100.00;101341.47;4963593;28;20050;-76
2021/12/31 10:42:02;;;;;;;5.82;1.80;;;;;;;10.87;100.00;101343.28;4975266;28;20060;-76
2021/12/31 10:44:50;;;;;;;6.88;2.63;;;;;;;10.90;100.00;101335.06;4980104;28;20073;-77
2021/12/31 10:47:22;;;;;;;10.68;3.08;;;;;;;10.87;100.00;101345.91;4982550;28;20026;-77
2021/12/31 10:49:56;;;;;;;7.13;3.42;;;;;;;10.89;100.00;101356.34;4981196;28;20511;-77
2021/12/31 10:52:29;;;;;;;3.17;2.28;;;;;;;10.87;100.00;101348.56;4979728;28;20581;-77
2021/12/31 10:55:26;;;;;;;8.35;2.65;;;;;;;10.90;100.00;101347.44;4966207;28;20117;-77
2021/12/31 10:58:01;;;;;;;7.68;3.10;;;;;;;10.77;100.00;101334.50;4956459;28;20061;-76
2021/12/31 11:00:32;;;;;;;3.72;2.30;;;;;;;10.80;100.00;101343.94;4982356;28;20027;-76
2021/12/31 11:02:58;;;;;;;9.63;3.55;;;;;;;10.69;100.00;101329.94;4982369;28;20034;-76
2021/12/31 11:05:24;;;;;;;10.18;3.10;;;;;;;10.81;100.00;101340.34;4966242;28;20253;-76
2021/12/31 11:07:52;;;;;;;10.57;2.70;;;;;;;10.79;100.00;101342.31;4972392;28;20026;-77
2021/12/31 11:10:24;;;;;;;8.55;3.08;;;;;;;10.69;100.00;101324.66;5022447;28;20041;-77
2021/12/31 11:12:52;;;;;;;8.82;3.28;;;;;;;10.81;100.00;101337.72;5037933;28;20439;-76
2021/12/31 11:15:17;;;;;;;7.43;2.92;;;;;;;10.66;100.00;101314.38;5044453;28;20055;-76
2021/12/31 11:17:43;;;;;;;8.30;3.13;;;;;;;10.80;100.00;101338.66;5052116;28;20025;-76
2021/12/31 11:20:10;;;;;;;6.55;3.10;;;;;;;10.78;100.00;101332.69;5064827;28;20093;-76